Time;durP1;ratioP1;P1;durP2;ratioP2;P2;SDS_P1;SDS_P2;PMS_P1;PMS_P2;Temp;Humidity;BMP_temperature;BMP_pressure;BME280_temperature;BME280_humidity;BME280_pressure;Samples;Min_cycle;Max_cycle;Signal;HPM_P1;HPM_P2
2024/01/02 00:00:18;;;;;;;5.93;1.53;;;;;;;;;;703100;28;841;-73
2024/01/02 00:00:38;;;;;;;6.00;1.40;;;;;;;;;;702684;28;1609;-72
2024/01/02 00:00:58;;;;;;;5.57;1.45;;;;;;;;;;702731;28;1252;-72
2024/01/02 00:01:19;;;;;;;4.77;1.40;;;;;;;;;;699566;28;1294;-72
2024/01/02 00:01:39;;;;;;;6.03;1.50;;;;;;;;;;697809;28;1560;-75
2024/01/02 00:02:01;;;;;;;7.20;1.60;;;;;;;;;;699574;28;941;-72
2024/01/02 00:02:21;;;;;;;5.57;1.45;;;;;;;;;;698895;28;1294;-75
2024/01/02 00:02:41;;;;;;;4.63;1.30;;;;;;;;;;697190;28;4570;-75
2024/01/02 00:03:02;;;;;;;5.23;1.50;;;;;;;;;;695768;28;1339;-74
2024/01/02 00:03:23;;;;;;;5.60;1.60;;;;;;;;;;699498;28;945;-75
2024/01/02 00:03:44;;;;;;;5.00;1.63;;;;;;;;;;698117;28;1713;-74
2024/01/02 00:04:04;;;;;;;3.97;1.40;;;;;;;;;;696481;28;1360;-71
2024/01/02 00:04:24;;;;;;;4.70;1.73;;;;;;;;;;696404;28;1282;-75
2024/01/02 00:04:45;;;;;;;4.72;1.70;;;;;;;;;;696801;28;2504;-75
2024/01/02 00:05:06;;;;;;;4.87;1.33;;;;;;;;;;697585;28;1218;-72
2024/01/02 00:05:27;;;;;;;5.18;1.23;;;;;;;;;;698090;28;939;-72
2024/01/02 00:05:47;;;;;;;6.88;1.40;;;;;;;;;;692132;28;4434;-72
2024/01/02 00:06:08;;;;;;;7.17;1.50;;;;;;;;;;694849;28;1314;-72
2024/01/02 00:06:28;;;;;;;5.33;1.43;;;;;;;;;;695568;28;895;-73
2024/01/02 00:06:49;;;;;;;7.07;1.60;;;;;;;;;;694973;28;2241;-75
2024/01/02 00:07:09;;;;;;;7.10;1.50;;;;;;;;;;698527;28;877;-74
2024/01/02 00:07:30;;;;;;;3.90;1.17;;;;;;;;;;698001;28;1346;-74
2024/01/02 00:07:51;;;;;;;5.25;1.52;;;;;;;;;;695350;28;921;-73
2024/01/02 00:08:12;;;;;;;5.45;1.48;;;;;;;;;;698253;28;1074;-71
2024/01/02 00:08:33;;;;;;;5.22;1.30;;;;;;;;;;699572;28;1551;-71
2024/01/02 00:08:55;;;;;;;3.80;1.10;;;;;;;;;;700154;28;4251;-72
2024/01/02 00:09:16;;;;;;;5.20;1.40;;;;;;;;;;701639;28;1337;-72
2024/01/02 00:09:37;;;;;;;5.57;1.20;;;;;;;;;;700544;28;1910;-70
2024/01/02 00:09:59;;;;;;;6.25;1.50;;;;;;;;;;703458;28;1422;-71
2024/01/02 00:10:22;;;;;;;3.38;1.40;;;;;;;;;;697561;28;862;-71
2024/01/02 00:10:43;;;;;;;4.78;1.40;;;;;;;;;;694045;28;1497;-72
2024/01/02 00:11:04;;;;;;;7.18;1.55;;;;;;;;;;695803;28;980;-72
2024/01/02 00:11:25;;;;;;;6.55;1.63;;;;;;;;;;692050;28;1299;-71
2024/01/02 00:11:45;;;;;;;4.55;1.50;;;;;;;;;;691411;28;4451;-71
2024/01/02 00:12:07;;;;;;;6.40;1.60;;;;;;;;;;697109;28;1197;-71
2024/01/02 00:12:28;;;;;;;5.32;1.33;;;;;;;;;;698032;28;921;-70
2024/01/02 00:12:48;;;;;;;6.30;1.40;;;;;;;;;;694415;28;2586;-73
2024/01/02 00:13:08;;;;;;;6.35;1.63;;;;;;;;;;695463;28;3356;-72
2024/01/02 00:13:28;;;;;;;6.00;1.70;;;;;;;;;;698399;28;1184;-70
2024/01/02 00:13:48;;;;;;;4.37;1.27;;;;;;;;;;699704;28;1848;-71
2024/01/02 00:14:09;;;;;;;4.97;1.25;;;;;;;;;;701414;28;945;-74
2024/01/02 00:14:29;;;;;;;4.60;1.40;;;;;;;;;;701807;28;948;-73
2024/01/02 00:14:52;;;;;;;4.77;1.50;;;;;;;;;;701158;28;4687;-73
2024/01/02 00:15:13;;;;;;;4.85;1.30;;;;;;;;;;699818;28;1660;-71
2024/01/02 00:15:33;;;;;;;6.07;1.47;;;;;;;;;;697396;28;995;-71
2024/01/02 00:15:53;;;;;;;5.33;1.47;;;;;;;;;;697975;28;944;-71
2024/01/02 00:16:14;;;;;;;3.22;1.40;;;;;;;;;;699030;28;1019;-72
2024/01/02 00:16:34;;;;;;;3.93;1.40;;;;;;;;;;696187;28;1859;-71
2024/01/02 00:16:54;;;;;;;4.32;1.48;;;;;;;;;;698104;28;1372;-70
2024/01/02 00:17:15;;;;;;;4.10;1.30;;;;;;;;;;701177;28;833;-70
2024/01/02 00:17:35;;;;;;;4.93;1.57;;;;;;;;;;695303;28;2112;-76
2024/01/02 00:17:55;;;;;;;4.95;1.33;;;;;;;;;;696794;28;4209;-70
2024/01/02 00:18:16;;;;;;;4.43;1.20;;;;;;;;;;695802;28;1267;-70
2024/01/02 00:18:36;;;;;;;4.30;1.20;;;;;;;;;;698595;28;1181;-70
2024/01/02 00:18:56;;;;;;;2.95;1.13;;;;;;;;;;699443;28;790;-72
2024/01/02 00:19:16;;;;;;;4.83;1.37;;;;;;;;;;699841;28;840;-70
2024/01/02 00:19:37;;;;;;;6.33;1.30;;;;;;;;;;702134;28;2434;-69
2024/01/02 00:19:57;;;;;;;5.95;1.40;;;;;;;;;;698074;28;1273;-70
2024/01/02 00:20:17;;;;;;;4.67;1.40;;;;;;;;;;699901;28;944;-73
2024/01/02 00:20:37;;;;;;;5.67;1.83;;;;;;;;;;699457;28;4332;-71
2024/01/02 00:20:58;;;;;;;5.47;1.80;;;;;;;;;;698603;28;806;-70
2024/01/02 00:21:18;;;;;;;4.70;1.40;;;;;;;;;;700773;28;1164;-73
2024/01/02 00:21:38;;;;;;;4.10;1.30;;;;;;;;;;698694;28;1533;-72
2024/01/02 00:21:59;;;;;;;4.63;1.60;;;;;;;;;;702968;28;829;-71
2024/01/02 00:22:20;;;;;;;5.37;1.30;;;;;;;;;;702728;28;1476;-70
2024/01/02 00:22:40;;;;;;;5.03;1.40;;;;;;;;;;702099;28;1539;-70
2024/01/02 00:23:00;;;;;;;4.47;1.40;;;;;;;;;;701840;28;1325;-71
2024/01/02 00:23:21;;;;;;;3.77;1.27;;;;;;;;;;702875;28;885;-73
2024/01/02 00:23:41;;;;;;;3.90;1.25;;;;;;;;;;701202;28;4297;-72
2024/01/02 00:24:02;;;;;;;4.13;1.10;;;;;;;;;;701720;28;853;-71
2024/01/02 00:24:23;;;;;;;5.80;1.35;;;;;;;;;;702723;28;960;-73
2024/01/02 00:24:43;;;;;;;4.78;1.30;;;;;;;;;;701052;28;1708;-73
2024/01/02 00:25:06;;;;;;;4.83;1.30;;;;;;;;;;703655;28;1305;-72
2024/01/02 00:25:26;;;;;;;5.22;1.70;;;;;;;;;;703770;28;1037;-72
2024/01/02 00:25:46;;;;;;;5.40;1.60;;;;;;;;;;701709;28;1693;-72
2024/01/02 00:26:07;;;;;;;6.53;1.60;;;;;;;;;;704102;28;924;-72
2024/01/02 00:26:28;;;;;;;6.55;1.60;;;;;;;;;;703704;28;1392;-74
2024/01/02 00:26:48;;;;;;;5.07;1.60;;;;;;;;;;701651;28;4296;-75
2024/01/02 00:27:08;;;;;;;4.07;1.30;;;;;;;;;;702962;28;1042;-72
2024/01/02 00:27:29;;;;;;;5.33;1.50;;;;;;;;;;702545;28;846;-71
2024/01/02 00:27:49;;;;;;;5.20;1.40;;;;;;;;;;702632;28;1864;-72
2024/01/02 00:28:11;;;;;;;5.40;1.20;;;;;;;;;;702715;28;928;-70
2024/01/02 00:28:31;;;;;;;6.70;1.55;;;;;;;;;;702849;28;956;-73
2024/01/02 00:28:51;;;;;;;5.57;1.60;;;;;;;;;;699414;28;1680;-72
2024/01/02 00:29:12;;;;;;;4.30;1.40;;;;;;;;;;697378;28;1250;-71
2024/01/02 00:29:32;;;;;;;4.80;1.40;;;;;;;;;;696924;28;1914;-71
2024/01/02 00:29:52;;;;;;;4.97;1.40;;;;;;;;;;695380;28;4332;-74
2024/01/02 00:30:13;;;;;;;5.43;1.40;;;;;;;;;;696016;28;917;-71
2024/01/02 00:30:34;;;;;;;4.32;1.10;;;;;;;;;;691744;28;1549;-71
2024/01/02 00:30:54;;;;;;;4.45;1.20;;;;;;;;;;698828;28;1461;-71
2024/01/02 00:31:14;;;;;;;4.73;1.40;;;;;;;;;;693809;28;1305;-70
2024/01/02 00:31:34;;;;;;;3.63;1.40;;;;;;;;;;693231;28;1770;-73
2024/01/02 00:31:55;;;;;;;4.35;1.23;;;;;;;;;;694669;28;1272;-71
2024/01/02 00:32:15;;;;;;;5.03;1.20;;;;;;;;;;692513;28;1259;-72
2024/01/02 00:32:35;;;;;;;4.88;1.30;;;;;;;;;;694466;28;1871;-73
2024/01/02 00:32:56;;;;;;;4.23;1.27;;;;;;;;;;695628;28;4252;-71
2024/01/02 00:33:16;;;;;;;4.10;1.30;;;;;;;;;;699040;28;778;-72
2024/01/02 00:33:36;;;;;;;6.37;1.60;;;;;;;;;;700150;28;2205;-72
2024/01/02 00:33:56;;;;;;;4.77;1.47;;;;;;;;;;697500;28;1473;-71
2024/01/02 00:34:17;;;;;;;3.50;1.40;;;;;;;;;;698858;28;1552;-70
2024/01/02 00:34:37;;;;;;;3.50;1.50;;;;;;;;;;697338;28;1723;-70
2024/01/02 00:34:58;;;;;;;4.80;1.40;;;;;;;;;;696357;28;837;-71
2024/01/02 00:35:18;;;;;;;6.33;1.50;;;;;;;;;;693038;28;1267;-70
2024/01/02 00:35:38;;;;;;;6.00;1.70;;;;;;;;;;693332;28;4354;-73
2024/01/02 00:35:58;;;;;;;4.57;1.60;;;;;;;;;;695798;28;1688;-72
2024/01/02 00:36:19;;;;;;;4.20;1.10;;;;;;;;;;697939;28;1232;-72
2024/01/02 00:36:40;;;;;;;4.63;1.20;;;;;;;;;;695745;28;1460;-71
2024/01/02 00:37:00;;;;;;;4.20;1.30;;;;;;;;;;698981;28;678;-72
2024/01/02 00:37:21;;;;;;;5.70;1.80;;;;;;;;;;694856;28;1267;-72
2024/01/02 00:37:41;;;;;;;5.30;1.63;;;;;;;;;;696881;28;2161;-71
2024/01/02 00:38:01;;;;;;;5.20;1.30;;;;;;;;;;698354;28;1162;-72
2024/01/02 00:38:25;;;;;;;4.85;1.30;;;;;;;;;;699259;28;917;-71
2024/01/02 00:38:45;;;;;;;5.93;1.20;;;;;;;;;;695482;28;4350;-71
2024/01/02 00:39:05;;;;;;;5.55;1.23;;;;;;;;;;695616;28;1168;-73
2024/01/02 00:39:26;;;;;;;5.37;1.53;;;;;;;;;;697436;28;912;-71
2024/01/02 00:39:46;;;;;;;4.00;1.20;;;;;;;;;;695082;28;1813;-70
2024/01/02 00:40:06;;;;;;;3.72;1.23;;;;;;;;;;693281;28;1148;-73
2024/01/02 00:40:27;;;;;;;4.40;1.90;;;;;;;;;;690713;28;1140;-71
2024/01/02 00:40:47;;;;;;;3.25;1.17;;;;;;;;;;691374;28;1835;-74
2024/01/02 00:41:08;;;;;;;3.27;1.10;;;;;;;;;;693425;28;806;-72
2024/01/02 00:41:28;;;;;;;5.40;1.30;;;;;;;;;;693626;28;850;-73
2024/01/02 00:41:49;;;;;;;4.87;1.20;;;;;;;;;;694262;28;4316;-73
2024/01/02 00:42:09;;;;;;;5.32;1.20;;;;;;;;;;698738;28;921;-72
2024/01/02 00:42:30;;;;;;;4.22;1.20;;;;;;;;;;700614;28;1246;-72
2024/01/02 00:42:50;;;;;;;4.27;1.10;;;;;;;;;;700190;28;1845;-72
2024/01/02 00:43:10;;;;;;;4.57;1.30;;;;;;;;;;702876;28;731;-72
2024/01/02 00:43:30;;;;;;;5.73;1.13;;;;;;;;;;699671;28;1347;-72
2024/01/02 00:43:51;;;;;;;5.03;1.20;;;;;;;;;;697302;28;1486;-73
2024/01/02 00:44:11;;;;;;;5.27;1.20;;;;;;;;;;695022;28;1409;-72
2024/01/02 00:44:32;;;;;;;3.95;1.10;;;;;;;;;;694051;28;1483;-73
2024/01/02 00:44:52;;;;;;;3.77;1.10;;;;;;;;;;691236;28;4440;-71
2024/01/02 00:45:12;;;;;;;4.57;1.20;;;;;;;;;;692506;28;994;-74
2024/01/02 00:45:32;;;;;;;4.00;1.10;;;;;;;;;;692387;28;1298;-72
2024/01/02 00:45:53;;;;;;;4.73;1.20;;;;;;;;;;694338;28;1772;-73
2024/01/02 00:46:13;;;;;;;4.65;1.30;;;;;;;;;;694755;28;870;-71
2024/01/02 00:46:34;;;;;;;5.80;1.30;;;;;;;;;;695631;28;1943;-74
2024/01/02 00:46:54;;;;;;;4.82;1.40;;;;;;;;;;698699;28;5935;-71
2024/01/02 00:47:14;;;;;;;3.87;1.30;;;;;;;;;;695595;28;1230;-73
2024/01/02 00:47:35;;;;;;;4.90;1.53;;;;;;;;;;694098;28;1918;-73
2024/01/02 00:47:55;;;;;;;5.47;1.35;;;;;;;;;;699791;28;4424;-72
2024/01/02 00:48:16;;;;;;;5.03;1.20;;;;;;;;;;700173;28;802;-73
2024/01/02 00:48:36;;;;;;;5.97;1.10;;;;;;;;;;700370;28;999;-73
2024/01/02 00:48:57;;;;;;;5.57;1.13;;;;;;;;;;699544;28;1396;-72
2024/01/02 00:49:17;;;;;;;6.37;1.27;;;;;;;;;;703015;28;974;-71
2024/01/02 00:49:37;;;;;;;5.00;1.10;;;;;;;;;;699515;28;2324;-74
2024/01/02 00:49:58;;;;;;;5.05;1.10;;;;;;;;;;700599;28;1065;-71
2024/01/02 00:50:18;;;;;;;5.70;1.20;;;;;;;;;;700304;28;1007;-72
2024/01/02 00:50:39;;;;;;;5.15;1.20;;;;;;;;;;696287;28;4308;-74
2024/01/02 00:51:00;;;;;;;4.20;1.17;;;;;;;;;;696103;28;1203;-71
2024/01/02 00:51:20;;;;;;;4.15;1.30;;;;;;;;;;696085;28;838;-72
2024/01/02 00:51:40;;;;;;;3.87;1.20;;;;;;;;;;696085;28;1560;-71
2024/01/02 00:52:01;;;;;;;5.20;1.60;;;;;;;;;;696324;28;1282;-72
2024/01/02 00:52:21;;;;;;;4.43;1.55;;;;;;;;;;691449;28;1208;-72
2024/01/02 00:52:41;;;;;;;5.30;1.50;;;;;;;;;;694831;28;1792;-73
2024/01/02 00:53:04;;;;;;;5.13;1.37;;;;;;;;;;698411;28;1390;-72
2024/01/02 00:53:24;;;;;;;3.33;1.10;;;;;;;;;;696274;28;950;-72
2024/01/02 00:53:44;;;;;;;4.77;1.20;;;;;;;;;;695216;28;4319;-72
2024/01/02 00:54:04;;;;;;;5.07;1.30;;;;;;;;;;695410;28;870;-72
2024/01/02 00:54:25;;;;;;;4.22;1.23;;;;;;;;;;698622;28;1143;-72
2024/01/02 00:54:45;;;;;;;2.60;1.03;;;;;;;;;;694245;28;1722;-72
2024/01/02 00:55:06;;;;;;;6.03;1.20;;;;;;;;;;696263;28;928;-72
2024/01/02 00:55:26;;;;;;;5.13;1.03;;;;;;;;;;691782;28;1283;-72
2024/01/02 00:55:47;;;;;;;4.45;1.27;;;;;;;;;;690487;28;1719;-72
2024/01/02 00:56:07;;;;;;;5.70;1.20;;;;;;;;;;693400;28;1148;-74
2024/01/02 00:56:28;;;;;;;3.97;1.10;;;;;;;;;;698496;28;1227;-73
2024/01/02 00:56:49;;;;;;;4.22;1.30;;;;;;;;;;695984;28;4278;-74
2024/01/02 00:57:09;;;;;;;5.70;1.23;;;;;;;;;;694428;28;1250;-72
2024/01/02 00:57:29;;;;;;;7.53;1.38;;;;;;;;;;690612;28;1538;-70
2024/01/02 00:57:50;;;;;;;8.20;1.57;;;;;;;;;;691090;28;1869;-71
2024/01/02 00:58:10;;;;;;;5.80;1.20;;;;;;;;;;693436;28;1416;-71
2024/01/02 00:58:30;;;;;;;3.87;1.10;;;;;;;;;;695794;28;1255;-70
2024/01/02 00:58:51;;;;;;;4.50;1.30;;;;;;;;;;694146;28;1812;-72
2024/01/02 00:59:13;;;;;;;4.33;1.20;;;;;;;;;;697005;28;1252;-72
2024/01/02 00:59:33;;;;;;;4.97;1.20;;;;;;;;;;694415;28;1306;-71
2024/01/02 00:59:54;;;;;;;5.07;1.23;;;;;;;;;;696689;28;4299;-71
2024/01/02 01:00:14;;;;;;;4.83;1.30;;;;;;;;;;695281;28;1321;-72
2024/01/02 01:00:35;;;;;;;3.05;1.05;;;;;;;;;;694753;28;2700;-72
2024/01/02 01:00:55;;;;;;;3.77;1.40;;;;;;;;;;695352;28;1282;-75
2024/01/02 01:01:17;;;;;;;3.97;1.20;;;;;;;;;;696320;28;1282;-72
2024/01/02 01:01:37;;;;;;;3.40;1.00;;;;;;;;;;696155;28;1969;-72
2024/01/02 01:01:57;;;;;;;4.90;1.30;;;;;;;;;;696192;28;1295;-71
2024/01/02 01:02:18;;;;;;;6.13;1.40;;;;;;;;;;696284;28;892;-71
2024/01/02 01:02:38;;;;;;;5.23;1.13;;;;;;;;;;691544;28;4312;-72
2024/01/02 01:02:59;;;;;;;6.53;1.33;;;;;;;;;;695663;28;1331;-71
2024/01/02 01:03:19;;;;;;;5.13;1.20;;;;;;;;;;696153;28;1282;-71
2024/01/02 01:03:39;;;;;;;5.13;1.02;;;;;;;;;;697700;28;1883;-73
2024/01/02 01:04:01;;;;;;;3.83;1.20;;;;;;;;;;699655;28;1118;-72
2024/01/02 01:04:23;;;;;;;2.88;1.15;;;;;;;;;;701792;28;865;-71
2024/01/02 01:04:43;;;;;;;4.40;1.10;;;;;;;;;;696156;28;1878;-71
2024/01/02 01:05:04;;;;;;;4.50;1.40;;;;;;;;;;695192;28;1219;-72
2024/01/02 01:05:25;;;;;;;5.45;1.30;;;;;;;;;;695895;28;1413;-71
2024/01/02 01:05:46;;;;;;;5.07;1.27;;;;;;;;;;690682;28;4298;-71
2024/01/02 01:06:07;;;;;;;3.17;1.10;;;;;;;;;;695965;28;846;-72
2024/01/02 01:06:27;;;;;;;3.30;1.10;;;;;;;;;;696177;28;1270;-72
2024/01/02 01:06:47;;;;;;;4.03;1.07;;;;;;;;;;696202;28;1560;-72
2024/01/02 01:07:07;;;;;;;4.80;1.10;;;;;;;;;;701279;28;887;-73
2024/01/02 01:07:28;;;;;;;3.93;1.00;;;;;;;;;;701649;28;786;-71
2024/01/02 01:07:48;;;;;;;5.57;1.40;;;;;;;;;;697582;28;2161;-74
2024/01/02 01:08:08;;;;;;;4.95;1.30;;;;;;;;;;700281;28;1150;-72
2024/01/02 01:08:29;;;;;;;5.60;1.33;;;;;;;;;;701233;28;968;-71
2024/01/02 01:08:49;;;;;;;4.90;1.20;;;;;;;;;;696623;28;4428;-71
2024/01/02 01:09:09;;;;;;;4.90;1.08;;;;;;;;;;698989;28;893;-73
2024/01/02 01:09:29;;;;;;;5.63;1.40;;;;;;;;;;695294;28;3310;-71
2024/01/02 01:09:50;;;;;;;5.13;1.40;;;;;;;;;;696931;28;2198;-72
2024/01/02 01:10:10;;;;;;;4.82;1.30;;;;;;;;;;698713;28;941;-73
2024/01/02 01:10:30;;;;;;;3.43;1.20;;;;;;;;;;698696;28;893;-72
2024/01/02 01:10:51;;;;;;;3.75;1.40;;;;;;;;;;694540;28;2624;-72
2024/01/02 01:11:12;;;;;;;3.80;1.10;;;;;;;;;;690719;28;1225;-73
2024/01/02 01:11:32;;;;;;;5.32;1.20;;;;;;;;;;691823;28;1065;-72
2024/01/02 01:11:53;;;;;;;4.00;1.00;;;;;;;;;;690200;28;4505;-71
2024/01/02 01:12:13;;;;;;;3.17;1.17;;;;;;;;;;692278;28;1741;-72
2024/01/02 01:12:33;;;;;;;4.03;1.27;;;;;;;;;;698291;28;1417;-73
2024/01/02 01:12:53;;;;;;;4.05;1.10;;;;;;;;;;696951;28;1779;-72
2024/01/02 01:13:15;;;;;;;3.73;1.10;;;;;;;;;;698791;28;1330;-73
2024/01/02 01:13:35;;;;;;;3.67;1.00;;;;;;;;;;697328;28;1475;-73
2024/01/02 01:13:55;;;;;;;4.85;1.08;;;;;;;;;;698408;28;853;-72
2024/01/02 01:14:16;;;;;;;6.17;1.30;;;;;;;;;;694222;28;1115;-72
2024/01/02 01:14:36;;;;;;;4.80;1.20;;;;;;;;;;691830;28;1651;-71
2024/01/02 01:14:58;;;;;;;4.57;1.30;;;;;;;;;;693785;28;4657;-74
2024/01/02 01:15:18;;;;;;;5.38;1.17;;;;;;;;;;695642;28;1701;-72
2024/01/02 01:15:39;;;;;;;4.57;1.13;;;;;;;;;;688855;28;1861;-75
2024/01/02 01:15:59;;;;;;;4.30;1.20;;;;;;;;;;691486;28;913;-73
2024/01/02 01:16:20;;;;;;;5.03;1.07;;;;;;;;;;696315;28;861;-73
2024/01/02 01:16:40;;;;;;;3.95;1.17;;;;;;;;;;694113;28;1797;-73
2024/01/02 01:17:00;;;;;;;4.60;1.20;;;;;;;;;;692997;28;1271;-72
2024/01/02 01:17:21;;;;;;;4.68;1.10;;;;;;;;;;696143;28;1186;-73
2024/01/02 01:17:41;;;;;;;4.53;1.13;;;;;;;;;;696174;28;4428;-73
2024/01/02 01:18:02;;;;;;;5.30;1.30;;;;;;;;;;698805;28;935;-73
2024/01/02 01:18:22;;;;;;;4.60;1.20;;;;;;;;;;698609;28;1222;-72
2024/01/02 01:18:42;;;;;;;4.37;1.30;;;;;;;;;;697173;28;1900;-74
2024/01/02 01:19:02;;;;;;;5.13;1.02;;;;;;;;;;693200;28;1179;-74
2024/01/02 01:19:23;;;;;;;4.73;1.10;;;;;;;;;;693151;28;869;-72
2024/01/02 01:19:43;;;;;;;3.40;1.10;;;;;;;;;;691630;28;1826;-74
2024/01/02 01:20:04;;;;;;;4.22;1.40;;;;;;;;;;693157;28;1302;-73
2024/01/02 01:20:24;;;;;;;3.92;1.20;;;;;;;;;;693531;28;1393;-74
2024/01/02 01:20:44;;;;;;;4.90;1.20;;;;;;;;;;689635;28;4482;-73
2024/01/02 01:21:05;;;;;;;4.23;1.00;;;;;;;;;;692722;28;1252;-73
2024/01/02 01:21:25;;;;;;;6.45;1.33;;;;;;;;;;692866;28;1155;-73
2024/01/02 01:21:45;;;;;;;5.83;1.53;;;;;;;;;;691319;28;2224;-73
2024/01/02 01:22:05;;;;;;;3.97;1.30;;;;;;;;;;692449;28;1449;-73
2024/01/02 01:22:26;;;;;;;3.85;1.20;;;;;;;;;;696016;28;921;-72
2024/01/02 01:22:46;;;;;;;4.70;1.10;;;;;;;;;;697183;28;1932;-73
2024/01/02 01:23:06;;;;;;;5.47;1.03;;;;;;;;;;701341;28;1356;-74
2024/01/02 01:23:28;;;;;;;4.95;1.05;;;;;;;;;;704245;28;881;-73
2024/01/02 01:23:48;;;;;;;4.10;1.25;;;;;;;;;;701357;28;4274;-72
2024/01/02 01:24:08;;;;;;;4.80;1.30;;;;;;;;;;701424;28;1400;-72
2024/01/02 01:24:29;;;;;;;3.50;1.00;;;;;;;;;;700209;28;1355;-73
2024/01/02 01:24:49;;;;;;;5.23;1.10;;;;;;;;;;699199;28;2161;-74
2024/01/02 01:25:09;;;;;;;6.03;1.10;;;;;;;;;;695612;28;1194;-73
2024/01/02 01:25:30;;;;;;;3.67;1.03;;;;;;;;;;694187;28;1324;-72
2024/01/02 01:25:50;;;;;;;3.20;1.00;;;;;;;;;;693156;28;2305;-73
2024/01/02 01:26:10;;;;;;;3.57;1.00;;;;;;;;;;697390;28;1478;-73
2024/01/02 01:26:31;;;;;;;4.10;1.10;;;;;;;;;;695729;28;1271;-74
2024/01/02 01:26:52;;;;;;;4.93;1.10;;;;;;;;;;694069;28;4345;-74
2024/01/02 01:27:13;;;;;;;4.53;1.20;;;;;;;;;;693586;28;1521;-74
2024/01/02 01:27:33;;;;;;;3.60;1.13;;;;;;;;;;693000;28;1420;-72
2024/01/02 01:27:53;;;;;;;4.57;1.37;;;;;;;;;;689306;28;2442;-76
2024/01/02 01:28:14;;;;;;;5.60;1.50;;;;;;;;;;692836;28;1292;-71
2024/01/02 01:28:34;;;;;;;5.03;1.33;;;;;;;;;;694085;28;893;-73
2024/01/02 01:28:54;;;;;;;5.80;1.47;;;;;;;;;;691832;28;1795;-74
2024/01/02 01:29:14;;;;;;;6.68;1.60;;;;;;;;;;693009;28;1224;-73
2024/01/02 01:29:35;;;;;;;5.57;1.73;;;;;;;;;;692306;28;1906;-73
2024/01/02 01:29:55;;;;;;;5.47;1.47;;;;;;;;;;688767;28;4680;-74
2024/01/02 01:30:15;;;;;;;5.00;1.37;;;;;;;;;;693178;28;924;-74
2024/01/02 01:30:35;;;;;;;6.18;1.80;;;;;;;;;;690408;28;1300;-73
2024/01/02 01:30:56;;;;;;;5.23;1.80;;;;;;;;;;694187;28;1773;-71
2024/01/02 01:31:16;;;;;;;5.17;1.80;;;;;;;;;;696426;28;1393;-72
2024/01/02 01:31:36;;;;;;;6.07;1.80;;;;;;;;;;695725;28;1191;-70
2024/01/02 01:31:57;;;;;;;7.07;1.80;;;;;;;;;;696962;28;1983;-71
2024/01/02 01:32:17;;;;;;;5.63;1.70;;;;;;;;;;695111;28;1342;-72
2024/01/02 01:32:37;;;;;;;7.10;1.97;;;;;;;;;;696619;28;4261;-71
2024/01/02 01:32:58;;;;;;;8.03;2.40;;;;;;;;;;695862;28;1337;-71
2024/01/02 01:33:18;;;;;;;6.53;2.00;;;;;;;;;;696063;28;1341;-71
2024/01/02 01:33:38;;;;;;;5.93;2.00;;;;;;;;;;692993;28;1512;-70
2024/01/02 01:33:59;;;;;;;4.75;1.90;;;;;;;;;;698498;28;1061;-71
2024/01/02 01:34:19;;;;;;;6.27;2.00;;;;;;;;;;698516;28;1596;-71
2024/01/02 01:34:40;;;;;;;6.70;2.00;;;;;;;;;;696748;28;2092;-71
2024/01/02 01:35:00;;;;;;;5.13;2.03;;;;;;;;;;698082;28;838;-73
2024/01/02 01:35:20;;;;;;;6.63;2.10;;;;;;;;;;698975;28;1266;-71
2024/01/02 01:35:41;;;;;;;5.60;2.00;;;;;;;;;;695737;28;4326;-72
2024/01/02 01:36:01;;;;;;;5.35;2.00;;;;;;;;;;694779;28;1505;-74
2024/01/02 01:36:22;;;;;;;5.73;2.10;;;;;;;;;;698518;28;869;-71
2024/01/02 01:36:42;;;;;;;6.15;2.25;;;;;;;;;;694752;28;1078;-69
2024/01/02 01:37:03;;;;;;;7.70;2.63;;;;;;;;;;690860;28;1128;-70
2024/01/02 01:37:23;;;;;;;6.10;2.50;;;;;;;;;;693406;28;1387;-69
2024/01/02 01:37:43;;;;;;;5.47;2.60;;;;;;;;;;691122;28;2175;-70
2024/01/02 01:38:04;;;;;;;6.57;2.70;;;;;;;;;;693082;28;1255;-70
2024/01/02 01:38:24;;;;;;;5.57;2.53;;;;;;;;;;693467;28;869;-70
2024/01/02 01:38:44;;;;;;;6.30;2.97;;;;;;;;;;691312;28;4475;-69
2024/01/02 01:39:05;;;;;;;7.07;2.88;;;;;;;;;;695303;28;1269;-69
2024/01/02 01:39:25;;;;;;;8.07;3.07;;;;;;;;;;692460;28;1285;-70
2024/01/02 01:39:46;;;;;;;6.75;2.80;;;;;;;;;;692745;28;1715;-71
2024/01/02 01:40:06;;;;;;;7.43;2.90;;;;;;;;;;692514;28;1053;-71
2024/01/02 01:40:27;;;;;;;6.78;3.38;;;;;;;;;;692044;28;955;-72
2024/01/02 01:40:48;;;;;;;6.60;3.30;;;;;;;;;;690164;28;2283;-72
2024/01/02 01:41:08;;;;;;;7.53;3.25;;;;;;;;;;694922;28;1227;-71
2024/01/02 01:41:28;;;;;;;7.47;3.67;;;;;;;;;;695621;28;905;-70
2024/01/02 01:41:49;;;;;;;7.73;3.63;;;;;;;;;;696099;28;4318;-71
2024/01/02 01:42:09;;;;;;;8.30;3.40;;;;;;;;;;696673;28;1306;-71
2024/01/02 01:42:29;;;;;;;7.78;3.55;;;;;;;;;;692724;28;1295;-71
2024/01/02 01:42:50;;;;;;;7.43;3.53;;;;;;;;;;692096;28;1334;-71
2024/01/02 01:43:12;;;;;;;7.03;3.70;;;;;;;;;;695744;28;862;-71
2024/01/02 01:43:32;;;;;;;9.20;4.20;;;;;;;;;;693018;28;1234;-72
2024/01/02 01:43:52;;;;;;;9.13;4.13;;;;;;;;;;690063;28;1915;-72
2024/01/02 01:44:12;;;;;;;8.37;3.77;;;;;;;;;;691069;28;1347;-71
2024/01/02 01:44:33;;;;;;;9.37;3.97;;;;;;;;;;691668;28;1128;-71
2024/01/02 01:44:53;;;;;;;10.07;4.05;;;;;;;;;;693763;28;4415;-70
2024/01/02 01:45:13;;;;;;;8.87;4.00;;;;;;;;;;695009;28;779;-71
2024/01/02 01:45:34;;;;;;;9.73;4.10;;;;;;;;;;699931;28;1294;-71
2024/01/02 01:45:54;;;;;;;9.13;4.50;;;;;;;;;;697892;28;1747;-69
2024/01/02 01:46:15;;;;;;;8.90;4.20;;;;;;;;;;696387;28;1344;-72
2024/01/02 01:46:36;;;;;;;9.68;4.13;;;;;;;;;;695425;28;909;-72
2024/01/02 01:46:57;;;;;;;8.52;4.10;;;;;;;;;;694777;28;5695;-71
2024/01/02 01:47:17;;;;;;;8.93;4.27;;;;;;;;;;695618;28;1294;-73
2024/01/02 01:47:38;;;;;;;8.25;3.88;;;;;;;;;;695432;28;4290;-71
2024/01/02 01:47:59;;;;;;;8.80;4.30;;;;;;;;;;695930;28;791;-72
2024/01/02 01:48:19;;;;;;;9.33;3.93;;;;;;;;;;694042;28;1258;-73
2024/01/02 01:48:40;;;;;;;8.90;3.55;;;;;;;;;;692819;28;899;-71
2024/01/02 01:49:00;;;;;;;8.43;3.90;;;;;;;;;;695746;28;1306;-72
2024/01/02 01:49:21;;;;;;;8.63;3.92;;;;;;;;;;694776;28;1618;-73
2024/01/02 01:49:42;;;;;;;9.47;4.13;;;;;;;;;;694620;28;1923;-73
2024/01/02 01:50:02;;;;;;;10.77;4.20;;;;;;;;;;696102;28;1503;-73
2024/01/02 01:50:23;;;;;;;10.10;4.03;;;;;;;;;;695775;28;790;-70
2024/01/02 01:50:43;;;;;;;8.63;4.07;;;;;;;;;;691145;28;4444;-71
2024/01/02 01:51:04;;;;;;;7.67;3.37;;;;;;;;;;690393;28;1119;-71
2024/01/02 01:51:24;;;;;;;6.95;3.47;;;;;;;;;;692821;28;1225;-72
2024/01/02 01:51:45;;;;;;;7.23;3.60;;;;;;;;;;691704;28;1640;-72
2024/01/02 01:52:06;;;;;;;7.70;3.60;;;;;;;;;;694794;28;1385;-70
2024/01/02 01:52:32;;;;;;;7.18;3.63;;;;;;;;;;694773;28;1255;-73
2024/01/02 01:52:52;;;;;;;7.35;3.72;;;;;;;;;;694806;28;1569;-73
2024/01/02 01:53:12;;;;;;;8.23;3.67;;;;;;;;;;698718;28;828;-74
2024/01/02 01:53:33;;;;;;;8.33;3.67;;;;;;;;;;702002;28;810;-71
2024/01/02 01:53:53;;;;;;;8.87;3.53;;;;;;;;;;701952;28;4468;-72
2024/01/02 01:54:14;;;;;;;8.57;3.47;;;;;;;;;;701441;28;1207;-73
2024/01/02 01:54:35;;;;;;;7.43;3.47;;;;;;;;;;700602;28;1219;-75
2024/01/02 01:54:55;;;;;;;7.65;3.60;;;;;;;;;;697317;28;1193;-75
2024/01/02 01:55:15;;;;;;;8.87;3.50;;;;;;;;;;699459;28;1349;-73
2024/01/02 01:55:36;;;;;;;8.53;3.53;;;;;;;;;;698350;28;1081;-76
2024/01/02 01:55:56;;;;;;;8.05;3.42;;;;;;;;;;696285;28;1808;-72
2024/01/02 01:56:17;;;;;;;7.40;3.37;;;;;;;;;;697423;28;1453;-71
2024/01/02 01:56:39;;;;;;;7.30;3.33;;;;;;;;;;692905;28;4325;-71
2024/01/02 01:56:59;;;;;;;7.30;3.33;;;;;;;;;;695310;28;1329;-70
2024/01/02 01:57:20;;;;;;;6.22;2.80;;;;;;;;;;693431;28;1547;-72
2024/01/02 01:57:41;;;;;;;7.40;2.97;;;;;;;;;;694383;28;2182;-74
2024/01/02 01:58:01;;;;;;;6.60;2.97;;;;;;;;;;693039;28;1370;-69
2024/01/02 01:58:21;;;;;;;4.95;2.58;;;;;;;;;;693274;28;1207;-71
2024/01/02 01:58:42;;;;;;;6.63;2.83;;;;;;;;;;692113;28;1814;-71
2024/01/02 01:59:04;;;;;;;6.40;3.10;;;;;;;;;;692750;28;1132;-74
2024/01/02 01:59:25;;;;;;;6.13;2.95;;;;;;;;;;695067;28;1479;-72
2024/01/02 01:59:46;;;;;;;8.00;2.85;;;;;;;;;;692667;28;4270;-72
2024/01/02 02:00:06;;;;;;;7.20;2.90;;;;;;;;;;693447;28;1292;-73
2024/01/02 02:00:28;;;;;;;6.63;2.75;;;;;;;;;;696110;28;1541;-73
2024/01/02 02:00:48;;;;;;;6.90;2.60;;;;;;;;;;696991;28;1917;-71
2024/01/02 02:01:09;;;;;;;7.30;3.20;;;;;;;;;;698927;28;1105;-71
2024/01/02 02:01:29;;;;;;;8.45;2.97;;;;;;;;;;698466;28;1175;-71
2024/01/02 02:01:50;;;;;;;7.93;2.50;;;;;;;;;;697306;28;1441;-73
2024/01/02 02:02:11;;;;;;;6.65;2.28;;;;;;;;;;699038;28;885;-72
2024/01/02 02:02:32;;;;;;;6.35;2.40;;;;;;;;;;697141;28;1328;-72
2024/01/02 02:02:52;;;;;;;7.03;2.50;;;;;;;;;;692538;28;4445;-72
2024/01/02 02:03:12;;;;;;;7.40;2.33;;;;;;;;;;696276;28;1201;-73
2024/01/02 02:03:33;;;;;;;7.20;2.60;;;;;;;;;;697815;28;1507;-73
2024/01/02 02:03:55;;;;;;;4.43;2.33;;;;;;;;;;694720;28;1620;-73
2024/01/02 02:04:15;;;;;;;5.70;2.30;;;;;;;;;;691233;28;1467;-68
2024/01/02 02:04:40;;;;;;;6.47;2.23;;;;;;;;;;692081;28;1305;-72
2024/01/02 02:05:01;;;;;;;5.55;2.13;;;;;;;;;;695725;28;1286;-73
2024/01/02 02:05:24;;;;;;;6.30;2.20;;;;;;;;;;695871;28;1299;-73
2024/01/02 02:05:45;;;;;;;5.57;2.03;;;;;;;;;;692647;28;4607;-72
2024/01/02 02:06:05;;;;;;;5.95;2.00;;;;;;;;;;692966;28;844;-69
2024/01/02 02:06:26;;;;;;;5.57;1.70;;;;;;;;;;691053;28;1329;-73
2024/01/02 02:06:47;;;;;;;7.65;2.05;;;;;;;;;;686263;28;1429;-73
2024/01/02 02:07:07;;;;;;;7.05;2.25;;;;;;;;;;687316;28;1320;-72
2024/01/02 02:07:28;;;;;;;4.90;2.00;;;;;;;;;;688145;28;791;-72